Terminal Aerodrome Forecast
Issued by NWS Atlanta, GA

Home | Current Version | Previous Version | Text Only | Print | Product List | Glossary On
Versions: 1 2 3 4 5 6 7 8 9 10 11 12 13 14 15 16 17 18 19 20 21 22 23 24
000
FTUS42 KFFC 190500
TAFMCN
TAF
KMCN 190520Z 1906/2006 03014G24KT 6SM -RA BR OVC012
      TEMPO 1906/1910 BKN008
     FM191000 03015G24KT 6SM -RA BKN008
     FM191900 04013G22KT P6SM BKN015=

USA.gov is the U.S. government's official web portal to all federal, state and local government web resources and services.